Time;durP1;ratioP1;P1;durP2;ratioP2;P2;SDS_P1;SDS_P2;PMS_P1;PMS_P2;Temp;Humidity;BMP_temperature;BMP_pressure;BME280_temperature;BME280_humidity;BME280_pressure;Samples;Min_cycle;Max_cycle;Signal;HPM_P1;HPM_P2
2023/12/31 00:01:37;;;;;;;9.65;3.65;;;9.30;99.90;;;;;;4997399;28;20027;-64
2023/12/31 00:04:03;;;;;;;5.22;2.95;;;9.40;99.90;;;;;;4996255;28;20026;-64
2023/12/31 00:06:32;;;;;;;8.95;3.45;;;9.20;99.90;;;;;;4997166;28;20027;-64
2023/12/31 00:08:58;;;;;;;9.05;3.63;;;9.20;99.90;;;;;;4997939;28;20026;-64
2023/12/31 00:11:23;;;;;;;10.63;2.90;;;9.20;99.90;;;;;;4996597;28;20031;-64
2023/12/31 00:13:49;;;;;;;6.03;3.00;;;9.40;99.90;;;;;;4997484;28;20022;-64
2023/12/31 00:16:15;;;;;;;9.00;3.90;;;9.50;99.90;;;;;;4998026;28;20019;-64
2023/12/31 00:18:40;;;;;;;5.32;3.20;;;9.40;99.90;;;;;;5000945;28;20045;-64
2023/12/31 00:21:06;;;;;;;6.65;3.15;;;9.30;99.90;;;;;;4999919;28;20027;-64
2023/12/31 00:23:32;;;;;;;11.85;3.70;;;9.30;99.90;;;;;;4999631;28;20026;-64
2023/12/31 00:25:57;;;;;;;8.23;3.55;;;9.20;99.90;;;;;;5000398;28;20086;-64
2023/12/31 00:28:23;;;;;;;9.25;4.13;;;9.30;99.90;;;;;;5000570;28;20031;-64
2023/12/31 00:30:48;;;;;;;7.75;3.42;;;9.30;99.90;;;;;;5016073;28;20026;-64
2023/12/31 00:33:14;;;;;;;4.25;2.63;;;9.30;99.90;;;;;;5016100;28;20062;-64
2023/12/31 00:35:39;;;;;;;7.72;3.88;;;9.30;99.90;;;;;;5015916;28;20061;-64
2023/12/31 00:38:05;;;;;;;9.48;3.88;;;9.30;99.90;;;;;;5000059;28;20143;-64
2023/12/31 00:40:31;;;;;;;8.25;3.03;;;9.20;99.90;;;;;;5016614;28;20121;-64
2023/12/31 00:42:56;;;;;;;7.72;3.13;;;9.20;99.90;;;;;;5000622;28;20078;-64
2023/12/31 00:45:22;;;;;;;4.93;3.42;;;9.30;99.90;;;;;;5000778;28;20037;-64
2023/12/31 00:47:47;;;;;;;6.28;3.20;;;9.30;99.90;;;;;;5015823;28;20098;-64
2023/12/31 00:50:13;;;;;;;7.47;3.15;;;9.40;99.90;;;;;;5016054;28;20030;-64
2023/12/31 00:52:38;;;;;;;5.35;3.20;;;9.40;99.90;;;;;;5015728;28;20030;-64
2023/12/31 00:55:04;;;;;;;7.32;3.47;;;9.20;99.90;;;;;;5000535;28;20034;-64
2023/12/31 00:57:30;;;;;;;6.47;3.30;;;9.30;99.90;;;;;;5015655;28;20026;-64
2023/12/31 00:59:55;;;;;;;4.53;3.10;;;9.40;99.90;;;;;;5015469;28;20034;-64
2023/12/31 01:02:22;;;;;;;6.30;2.92;;;9.50;99.90;;;;;;5000344;28;20030;-64
2023/12/31 01:04:47;;;;;;;6.03;2.95;;;9.50;99.90;;;;;;4999920;28;20030;-64
2023/12/31 01:07:13;;;;;;;5.72;3.42;;;9.40;99.90;;;;;;5015930;28;20037;-64
2023/12/31 01:09:40;;;;;;;8.70;3.17;;;9.40;99.90;;;;;;5016070;28;20023;-64
2023/12/31 01:12:06;;;;;;;9.02;3.20;;;9.30;99.90;;;;;;5015291;28;20108;-64
2023/12/31 01:14:31;;;;;;;8.38;3.58;;;9.20;99.90;;;;;;5016508;28;20023;-64
2023/12/31 01:16:57;;;;;;;8.43;3.60;;;9.20;99.90;;;;;;5015608;28;20030;-64
2023/12/31 01:19:22;;;;;;;11.52;4.85;;;9.20;99.90;;;;;;5015321;28;20026;-64
2023/12/31 01:21:49;;;;;;;7.05;3.92;;;9.00;99.90;;;;;;5015556;28;20026;-64
2023/12/31 01:24:14;;;;;;;6.90;2.97;;;9.10;99.90;;;;;;5015446;28;20030;-64
2023/12/31 01:26:40;;;;;;;10.55;3.58;;;9.20;99.90;;;;;;5014633;28;20133;-64
2023/12/31 01:29:05;;;;;;;10.75;3.50;;;9.20;99.90;;;;;;5015552;28;20033;-64
2023/12/31 01:31:31;;;;;;;10.30;4.35;;;9.10;99.90;;;;;;5014958;28;20026;-64
2023/12/31 01:33:56;;;;;;;17.17;6.05;;;9.10;99.90;;;;;;5015454;28;20030;-65
2023/12/31 01:36:24;;;;;;;10.18;4.82;;;9.10;99.90;;;;;;5015827;28;20079;-64
2023/12/31 01:38:50;;;;;;;7.80;2.95;;;9.00;99.90;;;;;;4999708;28;20022;-65
2023/12/31 01:41:16;;;;;;;10.98;4.65;;;9.00;99.90;;;;;;5014633;28;20106;-64
2023/12/31 01:43:41;;;;;;;7.22;3.65;;;8.80;99.90;;;;;;5014966;28;20034;-64
2023/12/31 01:46:09;;;;;;;8.70;3.38;;;8.90;99.90;;;;;;5015029;28;20022;-64
2023/12/31 01:48:35;;;;;;;12.38;3.35;;;8.90;99.90;;;;;;5014835;28;20034;-64
2023/12/31 01:51:02;;;;;;;11.65;3.53;;;8.90;99.90;;;;;;5014752;28;20029;-64
2023/12/31 01:53:28;;;;;;;6.25;3.20;;;8.80;99.90;;;;;;4999139;28;20022;-64
2023/12/31 01:55:55;;;;;;;7.50;3.35;;;8.70;99.90;;;;;;4999200;28;20023;-64
2023/12/31 01:58:22;;;;;;;7.38;3.63;;;8.70;99.90;;;;;;5014580;28;20031;-64
2023/12/31 02:00:48;;;;;;;9.90;3.80;;;8.50;99.90;;;;;;4998055;28;20022;-64
2023/12/31 02:03:15;;;;;;;6.90;3.50;;;8.60;99.90;;;;;;4999168;28;20029;-64
2023/12/31 02:05:41;;;;;;;7.82;2.95;;;8.50;99.90;;;;;;5014352;28;20027;-64
2023/12/31 02:08:06;;;;;;;9.68;3.58;;;8.30;99.90;;;;;;4997977;28;20026;-64
2023/12/31 02:10:32;;;;;;;5.25;2.60;;;8.20;99.90;;;;;;4998984;28;20041;-64
2023/12/31 02:12:59;;;;;;;10.43;2.33;;;8.10;99.90;;;;;;5014406;28;20033;-64
2023/12/31 02:15:34;;;;;;;8.80;3.55;;;8.10;99.90;;;;;;4998670;28;20030;-64
2023/12/31 02:18:01;;;;;;;4.28;2.13;;;7.80;99.90;;;;;;4998763;28;20058;-64
2023/12/31 02:20:30;;;;;;;6.18;2.80;;;7.70;99.90;;;;;;5014073;28;20037;-64
2023/12/31 02:22:57;;;;;;;6.28;2.65;;;7.70;99.90;;;;;;5014322;28;20090;-64
2023/12/31 02:25:24;;;;;;;5.40;2.50;;;7.60;99.90;;;;;;4998121;28;20026;-64
2023/12/31 02:27:50;;;;;;;4.65;1.88;;;7.60;99.90;;;;;;4998604;28;20049;-64
2023/12/31 02:30:15;;;;;;;5.97;2.72;;;7.60;99.90;;;;;;4997981;28;20022;-64
2023/12/31 02:32:41;;;;;;;8.25;2.33;;;7.80;99.90;;;;;;4997695;28;20025;-64
2023/12/31 02:35:07;;;;;;;10.82;2.10;;;7.80;99.90;;;;;;4998776;28;20038;-64
2023/12/31 02:37:32;;;;;;;6.93;1.77;;;8.00;99.90;;;;;;4998354;28;20033;-64
2023/12/31 02:39:58;;;;;;;5.63;2.05;;;8.10;99.90;;;;;;4998453;28;20027;-64
2023/12/31 02:42:23;;;;;;;3.08;1.45;;;8.20;99.90;;;;;;5014226;28;20030;-71
2023/12/31 02:44:49;;;;;;;5.93;1.70;;;8.40;99.90;;;;;;4998656;28;20034;-71
2023/12/31 02:47:14;;;;;;;4.38;1.83;;;8.40;99.90;;;;;;4998119;28;20085;-71
2023/12/31 02:49:40;;;;;;;3.50;1.40;;;8.60;99.90;;;;;;4998345;28;20066;-71
2023/12/31 02:52:05;;;;;;;3.78;1.38;;;8.50;99.90;;;;;;4997091;28;20049;-71
2023/12/31 02:54:31;;;;;;;4.20;1.50;;;8.50;99.90;;;;;;4997264;28;20023;-71
2023/12/31 02:56:57;;;;;;;2.08;1.20;;;8.30;99.90;;;;;;4997248;28;20030;-71
2023/12/31 02:59:23;;;;;;;4.07;2.17;;;8.10;99.90;;;;;;4998935;28;20030;-71
2023/12/31 03:01:50;;;;;;;3.53;1.35;;;8.00;99.90;;;;;;4997083;28;20022;-71
2023/12/31 03:04:15;;;;;;;6.43;1.67;;;7.90;99.90;;;;;;4997191;28;20023;-71
2023/12/31 03:06:41;;;;;;;5.82;1.40;;;7.80;99.90;;;;;;4997440;28;20037;-71
2023/12/31 03:09:06;;;;;;;3.35;1.10;;;7.90;99.90;;;;;;4996996;28;20030;-71
2023/12/31 03:11:36;;;;;;;3.85;1.40;;;7.80;99.90;;;;;;4996887;28;20037;-71
2023/12/31 03:14:01;;;;;;;4.20;1.90;;;7.90;99.90;;;;;;4997006;28;20054;-71
2023/12/31 03:16:27;;;;;;;2.83;1.50;;;8.10;99.90;;;;;;4996943;28;20022;-71
2023/12/31 03:18:53;;;;;;;1.77;1.25;;;8.20;99.90;;;;;;4996884;28;20044;-71
2023/12/31 03:21:19;;;;;;;4.22;1.45;;;8.30;99.90;;;;;;4996840;28;20142;-71
2023/12/31 03:23:44;;;;;;;5.18;1.60;;;8.30;99.90;;;;;;4996783;28;20033;-72
2023/12/31 03:26:10;;;;;;;3.22;1.23;;;8.20;99.90;;;;;;4997632;28;20022;-72
2023/12/31 03:28:37;;;;;;;2.92;1.48;;;8.00;99.90;;;;;;4996778;28;20120;-72
2023/12/31 03:31:03;;;;;;;2.78;1.55;;;8.10;99.90;;;;;;4996605;28;20022;-71
2023/12/31 03:33:29;;;;;;;5.80;1.77;;;8.10;99.90;;;;;;4997270;28;20026;-72
2023/12/31 03:35:54;;;;;;;2.50;1.40;;;8.10;99.90;;;;;;4997385;28;20023;-71
2023/12/31 03:38:20;;;;;;;2.88;1.75;;;8.20;99.90;;;;;;4996744;28;20030;-72
2023/12/31 03:40:45;;;;;;;2.88;1.73;;;8.00;99.90;;;;;;4996735;28;20018;-71
2023/12/31 03:43:11;;;;;;;4.18;1.70;;;8.10;99.90;;;;;;4997088;28;20026;-71
2023/12/31 03:45:36;;;;;;;3.28;1.88;;;8.10;99.90;;;;;;4997424;28;20042;-71
2023/12/31 03:48:02;;;;;;;1.90;1.25;;;8.10;99.90;;;;;;4997708;28;20030;-71
2023/12/31 03:50:28;;;;;;;3.67;1.60;;;8.10;99.90;;;;;;4997303;28;20029;-71
2023/12/31 03:52:53;;;;;;;2.55;1.30;;;8.30;99.90;;;;;;5001812;28;20097;-71
2023/12/31 03:55:19;;;;;;;4.90;1.40;;;8.30;99.90;;;;;;5000558;28;20045;-71
2023/12/31 03:57:44;;;;;;;6.82;1.80;;;8.40;99.90;;;;;;5001630;28;20023;-71
2023/12/31 04:00:10;;;;;;;5.72;1.50;;;8.40;99.90;;;;;;5000357;28;20026;-71
2023/12/31 04:02:36;;;;;;;2.67;1.77;;;8.50;99.90;;;;;;5000838;28;20121;-71
2023/12/31 04:05:03;;;;;;;2.85;1.42;;;8.40;99.90;;;;;;5000338;28;20027;-71
2023/12/31 04:07:29;;;;;;;3.17;1.40;;;8.50;99.90;;;;;;5000631;28;20068;-71
2023/12/31 04:09:54;;;;;;;3.67;1.95;;;8.50;99.90;;;;;;5000313;28;20026;-71
2023/12/31 04:12:20;;;;;;;4.95;1.63;;;8.50;99.90;;;;;;5000152;28;20031;-71
2023/12/31 04:14:45;;;;;;;2.50;1.60;;;8.50;99.90;;;;;;5000561;28;20046;-71
2023/12/31 04:17:11;;;;;;;2.45;1.40;;;8.50;99.90;;;;;;5000411;28;20030;-71
2023/12/31 04:19:37;;;;;;;3.45;1.38;;;8.40;99.90;;;;;;5000766;28;20030;-71
2023/12/31 04:22:02;;;;;;;6.20;1.50;;;8.40;99.90;;;;;;5000382;28;20053;-72
2023/12/31 04:24:28;;;;;;;6.70;1.60;;;8.30;99.90;;;;;;5000247;28;20038;-72
2023/12/31 04:26:53;;;;;;;4.40;1.60;;;8.30;99.90;;;;;;5000699;28;20065;-71
2023/12/31 04:29:19;;;;;;;3.55;1.60;;;8.40;99.90;;;;;;5000187;28;20049;-71
2023/12/31 04:31:46;;;;;;;3.25;1.48;;;8.50;99.90;;;;;;5000839;28;20018;-72
2023/12/31 04:34:12;;;;;;;2.83;1.70;;;8.50;99.90;;;;;;4999991;28;20034;-72
2023/12/31 04:36:41;;;;;;;5.95;2.13;;;8.50;99.90;;;;;;4999802;28;20026;-72
2023/12/31 04:39:07;;;;;;;3.17;1.67;;;8.60;99.90;;;;;;4999757;28;20037;-72
2023/12/31 04:41:32;;;;;;;8.07;2.08;;;8.50;99.90;;;;;;4999657;28;20022;-72
2023/12/31 04:43:58;;;;;;;3.80;1.90;;;8.70;99.90;;;;;;4999904;28;20073;-72
2023/12/31 04:46:24;;;;;;;2.55;1.55;;;8.60;99.90;;;;;;5000419;28;20022;-71
2023/12/31 04:48:49;;;;;;;2.92;1.60;;;8.60;99.90;;;;;;4999502;28;20026;-71
2023/12/31 04:51:29;;;;;;;2.97;1.70;;;8.60;99.90;;;;;;4999528;28;20039;-71
2023/12/31 04:53:55;;;;;;;1.90;1.30;;;8.60;99.90;;;;;;4999615;28;20027;-71
2023/12/31 04:56:22;;;;;;;4.55;1.90;;;8.60;99.90;;;;;;4999456;28;20023;-71
2023/12/31 04:58:50;;;;;;;3.50;1.50;;;8.50;99.90;;;;;;4999318;28;20044;-71
2023/12/31 05:01:15;;;;;;;3.00;1.35;;;8.50;99.90;;;;;;4999293;28;20030;-71
2023/12/31 05:03:41;;;;;;;6.88;2.40;;;8.40;99.90;;;;;;4999281;28;20065;-71
2023/12/31 05:06:07;;;;;;;2.92;1.90;;;8.20;99.90;;;;;;4999298;28;20022;-71
2023/12/31 05:08:32;;;;;;;3.45;1.75;;;8.30;99.90;;;;;;4999988;28;20023;-71
2023/12/31 05:10:58;;;;;;;4.07;1.77;;;8.30;99.90;;;;;;4999083;28;20037;-71
2023/12/31 05:13:23;;;;;;;4.22;1.73;;;8.40;99.90;;;;;;4999905;28;20023;-71
2023/12/31 05:15:49;;;;;;;2.90;1.60;;;8.20;99.90;;;;;;4999231;28;20029;-71
2023/12/31 05:18:14;;;;;;;2.65;1.20;;;8.10;99.90;;;;;;4999941;28;20038;-71
2023/12/31 05:20:40;;;;;;;3.85;1.65;;;8.20;99.90;;;;;;4998971;28;20026;-71
2023/12/31 05:23:06;;;;;;;3.97;2.00;;;8.20;99.90;;;;;;4999826;28;20027;-71
2023/12/31 05:25:31;;;;;;;2.90;1.65;;;8.40;99.90;;;;;;4999960;28;20023;-71
2023/12/31 05:27:57;;;;;;;2.97;1.67;;;8.30;99.90;;;;;;4999262;28;20043;-71
2023/12/31 05:30:23;;;;;;;4.10;2.15;;;8.40;99.90;;;;;;4999309;28;20022;-71
2023/12/31 05:32:49;;;;;;;2.95;1.50;;;8.30;99.90;;;;;;4998883;28;20045;-71
2023/12/31 05:35:14;;;;;;;4.03;1.60;;;8.40;99.90;;;;;;4998987;28;20030;-71
2023/12/31 05:37:40;;;;;;;3.25;1.40;;;8.40;99.90;;;;;;4999246;28;20121;-71
2023/12/31 05:40:06;;;;;;;4.03;1.55;;;8.20;99.90;;;;;;4999035;28;20018;-71
2023/12/31 05:42:31;;;;;;;5.50;1.60;;;8.20;99.90;;;;;;4998758;28;20043;-73
2023/12/31 05:44:57;;;;;;;8.30;2.10;;;8.10;99.90;;;;;;4998510;28;20034;-72
2023/12/31 05:47:22;;;;;;;3.70;1.90;;;7.80;99.90;;;;;;4998498;28;20030;-71
2023/12/31 05:49:48;;;;;;;2.90;1.85;;;7.80;99.90;;;;;;4998723;28;20026;-71
2023/12/31 05:52:14;;;;;;;2.47;1.50;;;7.80;99.90;;;;;;4998340;28;20018;-71
2023/12/31 05:54:39;;;;;;;4.22;1.77;;;7.70;99.90;;;;;;4998840;28;20019;-72
2023/12/31 05:57:05;;;;;;;4.40;1.95;;;7.90;99.90;;;;;;4998316;28;20033;-71
2023/12/31 05:59:31;;;;;;;3.60;1.90;;;7.80;99.90;;;;;;4998242;28;20030;-71
2023/12/31 06:01:56;;;;;;;2.25;1.20;;;7.60;99.90;;;;;;4998122;28;20102;-71
2023/12/31 06:04:23;;;;;;;3.15;1.50;;;7.70;99.90;;;;;;4998165;28;20030;-71
2023/12/31 06:06:48;;;;;;;4.75;1.70;;;7.80;99.90;;;;;;4999205;28;20117;-71
2023/12/31 06:09:14;;;;;;;3.13;1.50;;;7.70;99.90;;;;;;4998205;28;20090;-72
2023/12/31 06:11:39;;;;;;;2.83;1.48;;;7.80;99.90;;;;;;4998283;28;20031;-71
2023/12/31 06:14:06;;;;;;;1.98;1.60;;;7.50;99.90;;;;;;4998557;28;20104;-71
2023/12/31 06:16:32;;;;;;;2.78;1.50;;;7.50;99.90;;;;;;4998934;28;20065;-71
2023/12/31 06:18:58;;;;;;;2.35;1.48;;;7.80;99.90;;;;;;4997875;28;20022;-71
2023/12/31 06:21:24;;;;;;;4.00;1.40;;;7.70;99.90;;;;;;4998953;28;20050;-71
2023/12/31 06:23:50;;;;;;;3.63;1.80;;;7.50;99.90;;;;;;5001028;28;20113;-71
2023/12/31 06:26:15;;;;;;;3.00;1.45;;;7.60;99.90;;;;;;5002972;28;20027;-72
2023/12/31 06:28:41;;;;;;;2.35;1.20;;;7.60;99.90;;;;;;4997240;28;20038;-71
2023/12/31 06:31:07;;;;;;;2.50;1.40;;;7.60;99.90;;;;;;4997766;28;20022;-71
2023/12/31 06:33:32;;;;;;;3.75;1.25;;;7.60;99.90;;;;;;4997508;28;20018;-71
2023/12/31 06:35:58;;;;;;;2.22;1.17;;;7.60;99.90;;;;;;4998822;28;20089;-71
2023/12/31 06:38:24;;;;;;;1.98;1.27;;;7.70;99.90;;;;;;4997484;28;20030;-71
2023/12/31 06:40:50;;;;;;;2.47;1.60;;;7.80;99.90;;;;;;4997546;28;20030;-71
2023/12/31 06:43:15;;;;;;;4.78;1.25;;;7.80;99.90;;;;;;4997865;28;20048;-71
2023/12/31 06:45:41;;;;;;;3.15;1.75;;;7.80;99.90;;;;;;4998217;28;20034;-71
2023/12/31 06:48:07;;;;;;;2.05;1.10;;;7.90;99.90;;;;;;4998202;28;20027;-71
2023/12/31 06:50:33;;;;;;;4.90;1.38;;;7.90;99.90;;;;;;4998202;28;20026;-71
2023/12/31 06:52:59;;;;;;;2.67;1.40;;;8.00;99.90;;;;;;4998116;28;20018;-71
2023/12/31 06:55:25;;;;;;;4.07;1.52;;;8.20;99.90;;;;;;4998241;28;20049;-71
2023/12/31 06:57:50;;;;;;;1.88;1.10;;;8.30;99.90;;;;;;4998077;28;20037;-71
2023/12/31 07:00:16;;;;;;;3.00;1.40;;;8.50;99.90;;;;;;4998171;28;20026;-71
2023/12/31 07:02:42;;;;;;;3.42;1.23;;;8.40;99.90;;;;;;4998359;28;20018;-71
2023/12/31 07:05:08;;;;;;;2.08;1.30;;;8.40;99.90;;;;;;4998146;28;20072;-71
2023/12/31 07:07:34;;;;;;;1.63;1.02;;;8.40;99.90;;;;;;4997137;28;20116;-71
2023/12/31 07:09:59;;;;;;;2.67;1.30;;;8.40;99.90;;;;;;4997986;28;20033;-71
2023/12/31 07:12:25;;;;;;;1.90;1.30;;;8.40;99.90;;;;;;4997379;28;20070;-71
2023/12/31 07:14:51;;;;;;;5.03;1.27;;;8.50;99.90;;;;;;4997533;28;20035;-71
2023/12/31 07:17:17;;;;;;;3.58;1.38;;;8.40;99.90;;;;;;4997772;28;20037;-72
2023/12/31 07:19:42;;;;;;;3.03;1.67;;;8.30;99.90;;;;;;4996950;28;20042;-72
2023/12/31 07:22:08;;;;;;;2.17;1.20;;;8.40;99.90;;;;;;4997107;28;20025;-71
2023/12/31 07:24:34;;;;;;;2.53;1.23;;;8.40;99.90;;;;;;4997942;28;20042;-71
2023/12/31 07:26:59;;;;;;;3.20;1.65;;;8.40;99.90;;;;;;4996894;28;20028;-71
2023/12/31 07:29:26;;;;;;;3.78;1.83;;;8.50;99.90;;;;;;4996655;28;20022;-71
2023/12/31 07:31:52;;;;;;;2.63;1.52;;;8.60;99.90;;;;;;4996694;28;20025;-72
2023/12/31 07:34:17;;;;;;;2.03;1.40;;;8.40;99.90;;;;;;4997679;28;20030;-71
2023/12/31 07:36:43;;;;;;;2.97;1.85;;;8.30;99.90;;;;;;4996722;28;20034;-71
2023/12/31 07:39:09;;;;;;;2.05;1.67;;;8.30;99.90;;;;;;4997904;28;20061;-71
2023/12/31 07:41:35;;;;;;;5.20;1.30;;;8.20;99.90;;;;;;4997515;28;20022;-71
2023/12/31 07:44:00;;;;;;;3.03;1.52;;;8.20;99.90;;;;;;4996990;28;20026;-71
2023/12/31 07:46:26;;;;;;;2.38;1.40;;;8.30;99.90;;;;;;4997532;28;20022;-71
2023/12/31 07:48:52;;;;;;;2.38;1.48;;;8.40;99.90;;;;;;4996588;28;20100;-71
2023/12/31 07:51:18;;;;;;;2.42;1.50;;;8.50;99.90;;;;;;4997295;28;20118;-71
2023/12/31 07:53:44;;;;;;;2.85;1.27;;;8.60;99.90;;;;;;4997710;28;20029;-71
2023/12/31 07:56:10;;;;;;;1.98;1.52;;;8.70;99.90;;;;;;4996898;28;20022;-71
2023/12/31 07:58:35;;;;;;;1.40;1.20;;;8.60;99.90;;;;;;4997594;28;20027;-71
2023/12/31 08:01:04;;;;;;;4.18;1.73;;;8.70;99.90;;;;;;4996966;28;20030;-71
2023/12/31 08:03:29;;;;;;;2.88;1.30;;;8.70;99.90;;;;;;4997317;28;20022;-71
2023/12/31 08:05:55;;;;;;;5.72;1.65;;;8.70;99.90;;;;;;4996417;28;20054;-71
2023/12/31 08:08:21;;;;;;;3.55;1.80;;;8.50;99.90;;;;;;4996760;28;20054;-70
2023/12/31 08:10:47;;;;;;;3.00;1.67;;;8.50;99.90;;;;;;4996204;28;20045;-70
2023/12/31 08:13:13;;;;;;;3.67;1.63;;;8.30;99.90;;;;;;4996333;28;20015;-70
2023/12/31 08:15:38;;;;;;;4.18;1.67;;;8.20;99.90;;;;;;4996355;28;20089;-71
2023/12/31 08:18:05;;;;;;;1.80;1.33;;;8.20;99.90;;;;;;4997286;28;20060;-71
2023/12/31 08:20:30;;;;;;;4.53;1.50;;;8.20;99.90;;;;;;4996554;28;20026;-71
2023/12/31 08:22:58;;;;;;;2.53;1.40;;;8.30;99.90;;;;;;4997296;28;20029;-71
2023/12/31 08:25:23;;;;;;;1.98;1.38;;;8.30;99.90;;;;;;4996200;28;20030;-71
2023/12/31 08:27:49;;;;;;;4.97;2.20;;;8.40;99.90;;;;;;4997206;28;20042;-71
2023/12/31 08:30:14;;;;;;;2.30;1.60;;;8.30;99.90;;;;;;4996228;28;20022;-71
2023/12/31 08:32:40;;;;;;;5.85;1.67;;;8.40;99.90;;;;;;4996391;28;20045;-71
2023/12/31 08:35:06;;;;;;;2.13;1.25;;;8.40;99.90;;;;;;4997110;28;20028;-71
2023/12/31 08:37:31;;;;;;;2.70;1.52;;;8.50;99.90;;;;;;4999327;28;20034;-70
2023/12/31 08:39:57;;;;;;;4.05;1.80;;;8.50;99.90;;;;;;5001011;28;20038;-70
2023/12/31 08:42:23;;;;;;;2.00;1.23;;;8.40;99.90;;;;;;5000958;28;20048;-64
2023/12/31 08:44:49;;;;;;;4.30;2.17;;;8.40;99.90;;;;;;5000437;28;20031;-64
2023/12/31 08:47:14;;;;;;;2.53;1.27;;;8.40;99.90;;;;;;4999672;28;20134;-64
2023/12/31 08:49:40;;;;;;;2.92;1.63;;;8.40;99.90;;;;;;5000140;28;20027;-64
2023/12/31 08:52:06;;;;;;;3.45;1.38;;;8.40;99.90;;;;;;4998820;28;20136;-64
2023/12/31 08:54:33;;;;;;;5.43;1.70;;;8.50;99.90;;;;;;4999612;28;20030;-64
2023/12/31 08:56:59;;;;;;;7.28;1.70;;;8.50;99.90;;;;;;4998290;28;20037;-64
2023/12/31 08:59:25;;;;;;;2.22;1.45;;;8.60;99.90;;;;;;4999340;28;20104;-64
2023/12/31 09:01:51;;;;;;;4.60;1.50;;;8.50;99.90;;;;;;5000243;28;20022;-64
2023/12/31 09:04:17;;;;;;;3.38;1.85;;;8.60;99.90;;;;;;4999413;28;20088;-64
2023/12/31 09:06:42;;;;;;;2.70;1.50;;;8.50;99.90;;;;;;4999276;28;20026;-64
2023/12/31 09:09:08;;;;;;;2.92;1.63;;;8.50;99.90;;;;;;5000086;28;20033;-64
2023/12/31 09:11:34;;;;;;;2.97;1.40;;;8.40;99.90;;;;;;4999616;28;20026;-64
2023/12/31 09:13:59;;;;;;;3.42;1.70;;;8.30;99.90;;;;;;5000358;28;20031;-64
2023/12/31 09:16:25;;;;;;;4.00;1.73;;;8.30;99.90;;;;;;4999946;28;20058;-64
2023/12/31 09:18:51;;;;;;;3.30;1.70;;;8.20;99.90;;;;;;4999053;28;20019;-64
2023/12/31 09:21:16;;;;;;;3.40;1.80;;;8.20;99.90;;;;;;4999352;28;20029;-63
2023/12/31 09:23:42;;;;;;;5.75;1.65;;;8.20;99.90;;;;;;4999896;28;20097;-63
2023/12/31 09:26:08;;;;;;;10.75;1.83;;;8.10;99.90;;;;;;4999846;28;20031;-63
2023/12/31 09:28:34;;;;;;;3.47;1.63;;;8.10;99.90;;;;;;4999595;28;20101;-63
2023/12/31 09:30:59;;;;;;;4.22;1.88;;;8.20;99.90;;;;;;4999503;28;20077;-63
2023/12/31 09:33:25;;;;;;;3.28;1.48;;;8.30;99.90;;;;;;4998900;28;20110;-63
2023/12/31 09:35:50;;;;;;;2.75;1.50;;;8.40;99.90;;;;;;4998661;28;20120;-63
2023/12/31 09:38:16;;;;;;;2.80;1.77;;;8.40;99.90;;;;;;4999926;28;20077;-62
2023/12/31 09:40:43;;;;;;;4.00;1.30;;;8.40;99.90;;;;;;4998432;28;20026;-63
2023/12/31 09:43:10;;;;;;;3.35;1.63;;;8.40;99.90;;;;;;4999368;28;20027;-63
2023/12/31 09:45:35;;;;;;;3.80;1.38;;;8.50;99.90;;;;;;4998457;28;20113;-63
2023/12/31 09:48:02;;;;;;;13.98;2.40;;;8.40;99.90;;;;;;4997722;28;20056;-63
2023/12/31 09:50:30;;;;;;;2.75;1.60;;;8.50;99.90;;;;;;4998398;28;20026;-63
2023/12/31 09:52:59;;;;;;;2.65;1.88;;;8.40;99.90;;;;;;4999360;28;20069;-63
2023/12/31 09:55:25;;;;;;;2.67;1.58;;;8.40;99.90;;;;;;4999751;28;20050;-63
2023/12/31 09:57:54;;;;;;;3.28;1.95;;;8.50;99.90;;;;;;4999353;28;20080;-63
2023/12/31 10:00:20;;;;;;;3.47;1.73;;;8.50;99.90;;;;;;4998301;28;20033;-63
2023/12/31 10:02:46;;;;;;;3.45;1.70;;;8.50;99.90;;;;;;4998847;28;20026;-63
2023/12/31 10:05:14;;;;;;;3.05;1.77;;;8.50;99.90;;;;;;4999003;28;20077;-63
2023/12/31 10:07:40;;;;;;;2.65;1.80;;;8.40;99.90;;;;;;4998704;28;20018;-63
2023/12/31 10:10:08;;;;;;;2.75;1.70;;;8.50;99.90;;;;;;4998094;28;20112;-63
2023/12/31 10:12:34;;;;;;;4.18;2.03;;;8.50;99.90;;;;;;4998233;28;20026;-63
2023/12/31 10:14:59;;;;;;;3.22;1.58;;;8.50;99.90;;;;;;4998015;28;20034;-63
2023/12/31 10:17:26;;;;;;;3.00;1.58;;;8.40;99.90;;;;;;4998855;28;20038;-63
2023/12/31 10:19:51;;;;;;;3.08;1.65;;;8.50;99.90;;;;;;4998005;28;20026;-62
2023/12/31 10:22:17;;;;;;;3.90;1.70;;;8.50;99.90;;;;;;4997980;28;20045;-62
2023/12/31 10:24:43;;;;;;;3.25;1.38;;;8.60;99.90;;;;;;4997807;28;20031;-63
2023/12/31 10:27:11;;;;;;;3.15;1.90;;;8.70;99.90;;;;;;4997823;28;20022;-63
2023/12/31 10:29:37;;;;;;;2.83;1.73;;;8.60;99.90;;;;;;4998211;28;20029;-63
2023/12/31 10:32:03;;;;;;;3.92;1.73;;;8.60;99.90;;;;;;4998484;28;20026;-63
2023/12/31 10:34:29;;;;;;;2.53;1.60;;;8.70;99.90;;;;;;4998606;28;20030;-62
2023/12/31 10:37:05;;;;;;;3.55;1.60;;;8.70;99.90;;;;;;4997677;28;20037;-62
2023/12/31 10:39:33;;;;;;;3.58;1.70;;;8.70;99.90;;;;;;4997532;28;20026;-63
2023/12/31 10:42:03;;;;;;;5.93;2.05;;;8.60;99.90;;;;;;4998559;28;20029;-62
2023/12/31 10:44:37;;;;;;;4.07;1.90;;;8.40;99.90;;;;;;4997237;28;20030;-62
2023/12/31 10:47:04;;;;;;;5.43;2.40;;;8.40;99.90;;;;;;4997799;28;20026;-63
2023/12/31 10:49:32;;;;;;;4.30;2.10;;;8.50;99.90;;;;;;4997394;28;20022;-63
2023/12/31 10:52:03;;;;;;;3.88;2.00;;;8.70;99.90;;;;;;4997904;28;20030;-68
2023/12/31 10:54:41;;;;;;;3.20;1.52;;;8.70;99.90;;;;;;4998068;28;20026;-68
2023/12/31 10:57:09;;;;;;;4.00;1.60;;;8.70;99.90;;;;;;4997330;28;20089;-68
2023/12/31 10:59:36;;;;;;;5.93;1.90;;;8.80;99.90;;;;;;4997437;28;20072;-69
2023/12/31 11:02:04;;;;;;;3.38;1.65;;;8.90;99.90;;;;;;4997946;28;20022;-68
2023/12/31 11:04:31;;;;;;;2.70;1.88;;;8.90;99.90;;;;;;4997150;28;20048;-68
2023/12/31 11:06:56;;;;;;;4.45;1.77;;;9.00;99.90;;;;;;4997028;28;20037;-68
2023/12/31 11:09:22;;;;;;;3.90;1.90;;;9.00;99.90;;;;;;4997124;28;20018;-70
2023/12/31 11:11:51;;;;;;;3.20;1.73;;;9.00;99.90;;;;;;4996977;28;20034;-69
2023/12/31 11:14:27;;;;;;;3.45;1.90;;;9.00;99.90;;;;;;4997990;28;20069;-69
2023/12/31 11:17:26;;;;;;;3.78;1.80;;;9.00;99.90;;;;;;4998367;28;20026;-69
2023/12/31 11:20:13;;;;;;;4.25;1.90;;;9.10;99.90;;;;;;4997756;28;20027;-69
2023/12/31 11:23:25;;;;;;;2.40;1.80;;;9.20;99.90;;;;;;4997779;28;20022;-69
2023/12/31 11:25:51;;;;;;;2.50;1.70;;;9.10;99.90;;;;;;4965450;28;20112;-68
2023/12/31 11:28:19;;;;;;;2.53;1.55;;;9.20;99.90;;;;;;4997811;28;20070;-68
2023/12/31 11:30:49;;;;;;;4.10;2.08;;;9.20;99.90;;;;;;4997579;28;20033;-68
2023/12/31 11:33:24;;;;;;;3.88;2.38;;;9.30;99.90;;;;;;4997372;28;20026;-68
2023/12/31 11:35:52;;;;;;;3.33;1.73;;;9.20;99.90;;;;;;4996853;28;20054;-68
2023/12/31 11:38:18;;;;;;;2.30;1.70;;;9.20;99.90;;;;;;4996738;28;20029;-68
2023/12/31 11:40:45;;;;;;;3.30;1.98;;;9.20;99.90;;;;;;4997743;28;20022;-68
2023/12/31 11:43:20;;;;;;;8.05;3.38;;;9.20;99.90;;;;;;4996883;28;20026;-68
2023/12/31 11:45:48;;;;;;;2.67;1.77;;;9.30;99.90;;;;;;4997445;28;20038;-68
2023/12/31 11:48:22;;;;;;;3.75;1.85;;;9.30;99.90;;;;;;4996606;28;20098;-68
2023/12/31 11:51:01;;;;;;;4.32;1.90;;;9.30;99.90;;;;;;4996957;28;20090;-68
2023/12/31 11:53:27;;;;;;;3.63;1.80;;;9.30;99.90;;;;;;4997535;28;20101;-68
2023/12/31 11:55:54;;;;;;;5.70;2.20;;;9.40;99.90;;;;;;4997426;28;20100;-68
2023/12/31 11:58:23;;;;;;;2.35;1.63;;;9.40;99.90;;;;;;4997516;28;20030;-68
2023/12/31 12:00:53;;;;;;;2.78;1.88;;;9.30;99.90;;;;;;5002226;28;20049;-68
2023/12/31 12:03:19;;;;;;;7.15;2.55;;;9.30;99.90;;;;;;5016903;28;20026;-68
2023/12/31 12:05:52;;;;;;;2.53;1.85;;;9.40;99.90;;;;;;5014738;28;20108;-68
2023/12/31 12:08:19;;;;;;;2.35;1.52;;;9.40;99.90;;;;;;5016432;28;20083;-68
2023/12/31 12:10:44;;;;;;;2.63;2.00;;;9.30;99.90;;;;;;5016753;28;20038;-69
2023/12/31 12:13:10;;;;;;;3.08;2.13;;;9.30;99.90;;;;;;5020917;28;20029;-68
2023/12/31 12:15:36;;;;;;;5.20;2.00;;;9.20;99.90;;;;;;5020775;28;20025;-68
2023/12/31 12:18:21;;;;;;;3.45;1.88;;;9.30;99.90;;;;;;5020867;28;20072;-68
2023/12/31 12:20:47;;;;;;;3.25;1.67;;;9.30;99.90;;;;;;5019743;28;20026;-68
2023/12/31 12:23:17;;;;;;;3.50;1.52;;;9.30;99.90;;;;;;5019599;28;20032;-68
2023/12/31 12:25:43;;;;;;;4.85;1.80;;;9.30;99.90;;;;;;5020995;28;20025;-68
2023/12/31 12:28:10;;;;;;;2.67;1.42;;;9.40;99.90;;;;;;5020439;28;20049;-68
2023/12/31 12:30:41;;;;;;;3.58;1.73;;;9.30;99.90;;;;;;5019547;28;20025;-68
2023/12/31 12:33:07;;;;;;;2.95;1.45;;;9.20;99.90;;;;;;5020388;28;20018;-68
2023/12/31 12:35:37;;;;;;;3.67;1.95;;;9.30;99.90;;;;;;5019724;28;20033;-68
2023/12/31 12:38:03;;;;;;;5.38;1.95;;;9.40;99.90;;;;;;5020739;28;20034;-68
2023/12/31 12:40:29;;;;;;;3.88;1.77;;;9.60;99.90;;;;;;5020240;28;20033;-68
2023/12/31 12:42:54;;;;;;;2.88;1.88;;;9.60;99.90;;;;;;5019519;28;20026;-68
2023/12/31 12:45:23;;;;;;;4.63;2.08;;;9.50;99.90;;;;;;5020297;28;20054;-68
2023/12/31 12:47:48;;;;;;;4.00;1.88;;;9.60;99.90;;;;;;5020164;28;20026;-68
2023/12/31 12:50:14;;;;;;;2.83;1.65;;;9.50;99.90;;;;;;5019462;28;20030;-68
2023/12/31 12:52:40;;;;;;;2.50;1.83;;;9.40;99.90;;;;;;5019246;28;20018;-68
2023/12/31 12:55:06;;;;;;;4.03;1.85;;;9.40;99.90;;;;;;5020272;28;20026;-69